sensor_id;sensor_type;location;lat;lon;timestamp;P1;durP1;ratioP1;P2;durP2;ratioP2
11046;SDS011;5576;50.008;10.596;2022-10-16T00:00:42;1.10;;;0.90;;
11046;SDS011;5576;50.008;10.596;2022-10-16T00:03:09;1.10;;;1.00;;
11046;SDS011;5576;50.008;10.596;2022-10-16T00:05:40;1.50;;;1.02;;
11046;SDS011;5576;50.008;10.596;2022-10-16T00:08:07;1.40;;;1.00;;
11046;SDS011;5576;50.008;10.596;2022-10-16T00:10:34;2.33;;;1.10;;
11046;SDS011;5576;50.008;10.596;2022-10-16T00:13:01;1.30;;;0.90;;
11046;SDS011;5576;50.008;10.596;2022-10-16T00:15:26;1.40;;;1.00;;
11046;SDS011;5576;50.008;10.596;2022-10-16T00:17:52;1.80;;;1.17;;
11046;SDS011;5576;50.008;10.596;2022-10-16T00:20:18;1.77;;;1.17;;
11046;SDS011;5576;50.008;10.596;2022-10-16T00:22:44;1.30;;;0.80;;
11046;SDS011;5576;50.008;10.596;2022-10-16T00:25:09;1.20;;;0.97;;
11046;SDS011;5576;50.008;10.596;2022-10-16T00:27:35;0.80;;;0.80;;
11046;SDS011;5576;50.008;10.596;2022-10-16T00:30:01;2.90;;;0.90;;
11046;SDS011;5576;50.008;10.596;2022-10-16T00:32:27;1.10;;;0.90;;
11046;SDS011;5576;50.008;10.596;2022-10-16T00:34:53;1.80;;;0.90;;
11046;SDS011;5576;50.008;10.596;2022-10-16T00:37:20;3.00;;;1.10;;
11046;SDS011;5576;50.008;10.596;2022-10-16T00:39:46;1.20;;;0.93;;
11046;SDS011;5576;50.008;10.596;2022-10-16T00:42:15;0.80;;;0.80;;
11046;SDS011;5576;50.008;10.596;2022-10-16T00:44:43;1.40;;;1.27;;
11046;SDS011;5576;50.008;10.596;2022-10-16T00:47:13;1.80;;;1.20;;
11046;SDS011;5576;50.008;10.596;2022-10-16T00:49:43;1.20;;;1.10;;
11046;SDS011;5576;50.008;10.596;2022-10-16T00:52:11;2.13;;;1.55;;
11046;SDS011;5576;50.008;10.596;2022-10-16T00:54:38;2.63;;;1.23;;
11046;SDS011;5576;50.008;10.596;2022-10-16T00:57:05;0.90;;;0.82;;
11046;SDS011;5576;50.008;10.596;2022-10-16T00:59:34;1.00;;;0.73;;
11046;SDS011;5576;50.008;10.596;2022-10-16T01:02:02;0.82;;;0.70;;
11046;SDS011;5576;50.008;10.596;2022-10-16T01:04:31;2.60;;;1.27;;
11046;SDS011;5576;50.008;10.596;2022-10-16T01:15:33;1.80;;;1.00;;
11046;SDS011;5576;50.008;10.596;2022-10-16T01:20:38;1.25;;;1.10;;
11046;SDS011;5576;50.008;10.596;2022-10-16T01:31:24;1.83;;;1.40;;
11046;SDS011;5576;50.008;10.596;2022-10-16T01:33:56;2.00;;;1.77;;
11046;SDS011;5576;50.008;10.596;2022-10-16T01:36:30;4.82;;;3.13;;
11046;SDS011;5576;50.008;10.596;2022-10-16T01:39:02;4.38;;;3.10;;
11046;SDS011;5576;50.008;10.596;2022-10-16T01:41:45;3.85;;;2.70;;
11046;SDS011;5576;50.008;10.596;2022-10-16T01:44:18;4.35;;;2.28;;
11046;SDS011;5576;50.008;10.596;2022-10-16T01:46:48;3.20;;;1.80;;
11046;SDS011;5576;50.008;10.596;2022-10-16T01:49:17;3.30;;;2.25;;
11046;SDS011;5576;50.008;10.596;2022-10-16T01:51:44;2.20;;;1.40;;
11046;SDS011;5576;50.008;10.596;2022-10-16T01:54:13;3.33;;;2.20;;
11046;SDS011;5576;50.008;10.596;2022-10-16T01:56:42;2.00;;;1.70;;
11046;SDS011;5576;50.008;10.596;2022-10-16T01:59:10;3.28;;;1.85;;
11046;SDS011;5576;50.008;10.596;2022-10-16T02:01:39;1.90;;;1.50;;
11046;SDS011;5576;50.008;10.596;2022-10-16T02:04:11;3.65;;;1.50;;
11046;SDS011;5576;50.008;10.596;2022-10-16T02:06:43;1.60;;;1.48;;
11046;SDS011;5576;50.008;10.596;2022-10-16T02:09:09;1.83;;;1.40;;
11046;SDS011;5576;50.008;10.596;2022-10-16T02:11:36;1.33;;;1.13;;
11046;SDS011;5576;50.008;10.596;2022-10-16T02:14:02;2.13;;;1.20;;
11046;SDS011;5576;50.008;10.596;2022-10-16T02:16:32;1.70;;;1.30;;
11046;SDS011;5576;50.008;10.596;2022-10-16T02:19:00;1.55;;;1.30;;
11046;SDS011;5576;50.008;10.596;2022-10-16T02:21:28;1.48;;;1.38;;
11046;SDS011;5576;50.008;10.596;2022-10-16T02:24:02;1.50;;;1.40;;
11046;SDS011;5576;50.008;10.596;2022-10-16T02:26:35;2.80;;;1.50;;
11046;SDS011;5576;50.008;10.596;2022-10-16T02:29:08;2.08;;;1.80;;
11046;SDS011;5576;50.008;10.596;2022-10-16T02:31:38;2.10;;;1.90;;
11046;SDS011;5576;50.008;10.596;2022-10-16T02:34:09;4.18;;;2.10;;
11046;SDS011;5576;50.008;10.596;2022-10-16T02:36:37;1.80;;;1.70;;
11046;SDS011;5576;50.008;10.596;2022-10-16T02:39:04;1.83;;;1.70;;
11046;SDS011;5576;50.008;10.596;2022-10-16T02:41:31;1.90;;;1.80;;
11046;SDS011;5576;50.008;10.596;2022-10-16T02:43:57;2.30;;;1.98;;
11046;SDS011;5576;50.008;10.596;2022-10-16T02:46:23;2.38;;;2.08;;
11046;SDS011;5576;50.008;10.596;2022-10-16T02:48:49;2.37;;;2.10;;
11046;SDS011;5576;50.008;10.596;2022-10-16T02:51:15;2.78;;;2.10;;
11046;SDS011;5576;50.008;10.596;2022-10-16T02:53:40;2.60;;;2.30;;
11046;SDS011;5576;50.008;10.596;2022-10-16T02:56:06;2.35;;;2.10;;
11046;SDS011;5576;50.008;10.596;2022-10-16T02:58:32;2.50;;;2.30;;
11046;SDS011;5576;50.008;10.596;2022-10-16T03:00:59;3.05;;;2.08;;
11046;SDS011;5576;50.008;10.596;2022-10-16T03:03:24;2.27;;;2.00;;
11046;SDS011;5576;50.008;10.596;2022-10-16T03:05:50;3.17;;;2.58;;
11046;SDS011;5576;50.008;10.596;2022-10-16T03:08:16;2.80;;;2.10;;
11046;SDS011;5576;50.008;10.596;2022-10-16T03:10:42;2.50;;;2.30;;
11046;SDS011;5576;50.008;10.596;2022-10-16T03:13:08;2.55;;;2.35;;
11046;SDS011;5576;50.008;10.596;2022-10-16T03:15:34;3.27;;;1.97;;
11046;SDS011;5576;50.008;10.596;2022-10-16T03:17:59;2.75;;;1.73;;
11046;SDS011;5576;50.008;10.596;2022-10-16T03:20:25;1.97;;;1.67;;
11046;SDS011;5576;50.008;10.596;2022-10-16T03:22:52;4.00;;;1.90;;
11046;SDS011;5576;50.008;10.596;2022-10-16T03:25:17;1.92;;;1.52;;
11046;SDS011;5576;50.008;10.596;2022-10-16T03:27:43;2.00;;;1.80;;
11046;SDS011;5576;50.008;10.596;2022-10-16T03:30:09;2.28;;;1.60;;
11046;SDS011;5576;50.008;10.596;2022-10-16T03:32:35;2.80;;;1.77;;
11046;SDS011;5576;50.008;10.596;2022-10-16T03:35:01;4.00;;;2.00;;
11046;SDS011;5576;50.008;10.596;2022-10-16T03:37:27;3.00;;;1.75;;
11046;SDS011;5576;50.008;10.596;2022-10-16T03:39:53;2.20;;;1.60;;
11046;SDS011;5576;50.008;10.596;2022-10-16T03:42:19;3.60;;;1.70;;
11046;SDS011;5576;50.008;10.596;2022-10-16T03:44:44;1.63;;;1.42;;
11046;SDS011;5576;50.008;10.596;2022-10-16T03:47:10;2.87;;;1.50;;
11046;SDS011;5576;50.008;10.596;2022-10-16T03:49:36;2.30;;;1.50;;
11046;SDS011;5576;50.008;10.596;2022-10-16T03:52:02;1.80;;;1.60;;
11046;SDS011;5576;50.008;10.596;2022-10-16T03:54:27;4.25;;;1.38;;
11046;SDS011;5576;50.008;10.596;2022-10-16T03:56:53;1.70;;;1.50;;
11046;SDS011;5576;50.008;10.596;2022-10-16T03:59:19;2.40;;;1.58;;
11046;SDS011;5576;50.008;10.596;2022-10-16T04:01:45;1.60;;;1.50;;
11046;SDS011;5576;50.008;10.596;2022-10-16T04:04:10;2.67;;;1.67;;
11046;SDS011;5576;50.008;10.596;2022-10-16T04:06:36;2.17;;;1.97;;
11046;SDS011;5576;50.008;10.596;2022-10-16T04:09:02;2.10;;;1.70;;
11046;SDS011;5576;50.008;10.596;2022-10-16T04:11:28;2.30;;;1.65;;
11046;SDS011;5576;50.008;10.596;2022-10-16T04:13:54;3.77;;;1.60;;
11046;SDS011;5576;50.008;10.596;2022-10-16T04:16:20;2.88;;;1.60;;
11046;SDS011;5576;50.008;10.596;2022-10-16T04:18:45;3.17;;;1.73;;
11046;SDS011;5576;50.008;10.596;2022-10-16T04:21:11;2.08;;;1.60;;
11046;SDS011;5576;50.008;10.596;2022-10-16T04:23:37;1.87;;;1.57;;
11046;SDS011;5576;50.008;10.596;2022-10-16T04:26:03;1.73;;;1.60;;
11046;SDS011;5576;50.008;10.596;2022-10-16T04:28:29;3.40;;;2.10;;
11046;SDS011;5576;50.008;10.596;2022-10-16T04:30:54;3.45;;;2.00;;
11046;SDS011;5576;50.008;10.596;2022-10-16T04:33:20;7.78;;;5.60;;
11046;SDS011;5576;50.008;10.596;2022-10-16T04:35:46;2.65;;;2.40;;
11046;SDS011;5576;50.008;10.596;2022-10-16T04:38:13;2.10;;;1.50;;
11046;SDS011;5576;50.008;10.596;2022-10-16T04:40:41;3.28;;;1.92;;
11046;SDS011;5576;50.008;10.596;2022-10-16T04:43:07;3.60;;;1.92;;
11046;SDS011;5576;50.008;10.596;2022-10-16T04:45:33;2.92;;;1.95;;
11046;SDS011;5576;50.008;10.596;2022-10-16T04:47:59;4.90;;;2.23;;
11046;SDS011;5576;50.008;10.596;2022-10-16T04:50:25;3.50;;;1.90;;
11046;SDS011;5576;50.008;10.596;2022-10-16T04:53:07;3.65;;;1.85;;
11046;SDS011;5576;50.008;10.596;2022-10-16T04:55:33;2.10;;;1.90;;
11046;SDS011;5576;50.008;10.596;2022-10-16T04:57:59;2.50;;;1.90;;
11046;SDS011;5576;50.008;10.596;2022-10-16T05:00:24;2.65;;;1.92;;
11046;SDS011;5576;50.008;10.596;2022-10-16T05:02:50;2.30;;;1.70;;
11046;SDS011;5576;50.008;10.596;2022-10-16T05:05:17;3.08;;;1.50;;
11046;SDS011;5576;50.008;10.596;2022-10-16T05:07:45;2.60;;;1.70;;
11046;SDS011;5576;50.008;10.596;2022-10-16T05:10:11;3.20;;;1.67;;
11046;SDS011;5576;50.008;10.596;2022-10-16T05:12:37;2.75;;;1.50;;
11046;SDS011;5576;50.008;10.596;2022-10-16T05:15:03;1.97;;;1.70;;
11046;SDS011;5576;50.008;10.596;2022-10-16T05:17:29;2.35;;;1.80;;
11046;SDS011;5576;50.008;10.596;2022-10-16T05:19:55;2.67;;;1.58;;
11046;SDS011;5576;50.008;10.596;2022-10-16T05:22:21;3.20;;;1.38;;
11046;SDS011;5576;50.008;10.596;2022-10-16T05:24:47;2.00;;;1.50;;
11046;SDS011;5576;50.008;10.596;2022-10-16T05:27:12;1.52;;;1.42;;
11046;SDS011;5576;50.008;10.596;2022-10-16T05:29:44;5.40;;;1.75;;
11046;SDS011;5576;50.008;10.596;2022-10-16T05:32:12;2.10;;;1.30;;
11046;SDS011;5576;50.008;10.596;2022-10-16T05:34:38;2.47;;;1.40;;
11046;SDS011;5576;50.008;10.596;2022-10-16T05:37:04;2.67;;;1.30;;
11046;SDS011;5576;50.008;10.596;2022-10-16T05:39:30;2.50;;;1.30;;
11046;SDS011;5576;50.008;10.596;2022-10-16T05:41:56;1.80;;;1.40;;
11046;SDS011;5576;50.008;10.596;2022-10-16T05:44:22;1.70;;;1.30;;
11046;SDS011;5576;50.008;10.596;2022-10-16T05:46:47;3.53;;;1.27;;
11046;SDS011;5576;50.008;10.596;2022-10-16T05:49:13;1.67;;;1.30;;
11046;SDS011;5576;50.008;10.596;2022-10-16T05:51:39;1.80;;;1.17;;
11046;SDS011;5576;50.008;10.596;2022-10-16T05:54:06;2.53;;;1.30;;
11046;SDS011;5576;50.008;10.596;2022-10-16T05:56:32;3.35;;;1.50;;
11046;SDS011;5576;50.008;10.596;2022-10-16T05:58:58;1.75;;;1.42;;
11046;SDS011;5576;50.008;10.596;2022-10-16T06:01:23;2.90;;;1.73;;
11046;SDS011;5576;50.008;10.596;2022-10-16T06:03:50;2.50;;;1.60;;
11046;SDS011;5576;50.008;10.596;2022-10-16T06:06:17;2.90;;;1.70;;
11046;SDS011;5576;50.008;10.596;2022-10-16T06:08:45;4.60;;;1.70;;
11046;SDS011;5576;50.008;10.596;2022-10-16T06:11:14;2.63;;;1.80;;
11046;SDS011;5576;50.008;10.596;2022-10-16T06:13:41;1.95;;;1.50;;
11046;SDS011;5576;50.008;10.596;2022-10-16T06:16:08;3.40;;;1.70;;
11046;SDS011;5576;50.008;10.596;2022-10-16T06:18:35;2.88;;;2.28;;
11046;SDS011;5576;50.008;10.596;2022-10-16T06:21:06;4.55;;;3.10;;
11046;SDS011;5576;50.008;10.596;2022-10-16T06:23:34;2.85;;;2.10;;
11046;SDS011;5576;50.008;10.596;2022-10-16T06:26:04;2.63;;;1.77;;
11046;SDS011;5576;50.008;10.596;2022-10-16T06:28:31;3.47;;;1.70;;
11046;SDS011;5576;50.008;10.596;2022-10-16T06:30:59;2.58;;;2.05;;
11046;SDS011;5576;50.008;10.596;2022-10-16T06:33:26;3.10;;;2.30;;
11046;SDS011;5576;50.008;10.596;2022-10-16T06:35:52;2.03;;;1.83;;
11046;SDS011;5576;50.008;10.596;2022-10-16T06:38:18;2.07;;;1.70;;
11046;SDS011;5576;50.008;10.596;2022-10-16T06:40:43;2.60;;;1.70;;
11046;SDS011;5576;50.008;10.596;2022-10-16T06:43:09;7.77;;;4.47;;
11046;SDS011;5576;50.008;10.596;2022-10-16T06:45:35;3.45;;;2.58;;
11046;SDS011;5576;50.008;10.596;2022-10-16T06:48:01;3.43;;;1.80;;
11046;SDS011;5576;50.008;10.596;2022-10-16T06:50:26;2.53;;;2.20;;
11046;SDS011;5576;50.008;10.596;2022-10-16T06:52:52;3.60;;;2.10;;
11046;SDS011;5576;50.008;10.596;2022-10-16T06:55:18;3.70;;;1.70;;
11046;SDS011;5576;50.008;10.596;2022-10-16T06:57:44;2.60;;;1.80;;
11046;SDS011;5576;50.008;10.596;2022-10-16T07:00:12;3.23;;;2.77;;
11046;SDS011;5576;50.008;10.596;2022-10-16T07:02:38;2.70;;;2.10;;
11046;SDS011;5576;50.008;10.596;2022-10-16T07:05:04;7.10;;;4.23;;
11046;SDS011;5576;50.008;10.596;2022-10-16T07:07:29;2.50;;;2.28;;
11046;SDS011;5576;50.008;10.596;2022-10-16T07:09:55;3.70;;;3.35;;
11046;SDS011;5576;50.008;10.596;2022-10-16T07:12:21;3.17;;;2.60;;
11046;SDS011;5576;50.008;10.596;2022-10-16T07:14:47;3.40;;;3.10;;
11046;SDS011;5576;50.008;10.596;2022-10-16T07:17:12;3.88;;;2.30;;
11046;SDS011;5576;50.008;10.596;2022-10-16T07:19:38;2.80;;;2.57;;
11046;SDS011;5576;50.008;10.596;2022-10-16T07:22:04;3.05;;;2.47;;
11046;SDS011;5576;50.008;10.596;2022-10-16T07:24:30;3.00;;;2.03;;
11046;SDS011;5576;50.008;10.596;2022-10-16T07:26:55;4.18;;;2.50;;
11046;SDS011;5576;50.008;10.596;2022-10-16T07:29:21;2.93;;;2.00;;
11046;SDS011;5576;50.008;10.596;2022-10-16T07:31:47;3.13;;;1.80;;
11046;SDS011;5576;50.008;10.596;2022-10-16T07:34:14;4.50;;;2.10;;
11046;SDS011;5576;50.008;10.596;2022-10-16T07:36:41;2.47;;;1.75;;
11046;SDS011;5576;50.008;10.596;2022-10-16T07:39:07;2.27;;;1.60;;
11046;SDS011;5576;50.008;10.596;2022-10-16T07:41:33;2.00;;;1.80;;
11046;SDS011;5576;50.008;10.596;2022-10-16T07:44:02;2.75;;;1.75;;
11046;SDS011;5576;50.008;10.596;2022-10-16T07:46:28;4.40;;;1.70;;
11046;SDS011;5576;50.008;10.596;2022-10-16T07:48:55;3.03;;;2.45;;
11046;SDS011;5576;50.008;10.596;2022-10-16T07:51:21;11.27;;;7.67;;
11046;SDS011;5576;50.008;10.596;2022-10-16T07:53:49;11.30;;;7.72;;
11046;SDS011;5576;50.008;10.596;2022-10-16T07:56:16;9.30;;;4.65;;
11046;SDS011;5576;50.008;10.596;2022-10-16T07:58:43;12.10;;;8.55;;
11046;SDS011;5576;50.008;10.596;2022-10-16T08:01:09;6.40;;;3.53;;
11046;SDS011;5576;50.008;10.596;2022-10-16T08:03:38;7.82;;;3.80;;
11046;SDS011;5576;50.008;10.596;2022-10-16T08:06:07;3.37;;;2.60;;
11046;SDS011;5576;50.008;10.596;2022-10-16T08:08:33;6.47;;;3.70;;
11046;SDS011;5576;50.008;10.596;2022-10-16T08:10:59;4.00;;;2.03;;
11046;SDS011;5576;50.008;10.596;2022-10-16T08:13:24;4.00;;;2.80;;
11046;SDS011;5576;50.008;10.596;2022-10-16T08:15:51;4.10;;;3.70;;
11046;SDS011;5576;50.008;10.596;2022-10-16T08:18:19;3.58;;;3.05;;
11046;SDS011;5576;50.008;10.596;2022-10-16T08:20:45;5.38;;;2.70;;
11046;SDS011;5576;50.008;10.596;2022-10-16T08:23:11;5.22;;;2.08;;
11046;SDS011;5576;50.008;10.596;2022-10-16T08:25:38;2.92;;;2.65;;
11046;SDS011;5576;50.008;10.596;2022-10-16T08:28:05;2.25;;;2.05;;
11046;SDS011;5576;50.008;10.596;2022-10-16T08:30:32;2.35;;;2.08;;
11046;SDS011;5576;50.008;10.596;2022-10-16T08:32:58;4.30;;;2.45;;
11046;SDS011;5576;50.008;10.596;2022-10-16T08:35:24;3.00;;;1.90;;
11046;SDS011;5576;50.008;10.596;2022-10-16T08:37:50;4.20;;;1.90;;
11046;SDS011;5576;50.008;10.596;2022-10-16T08:40:17;2.70;;;1.90;;
11046;SDS011;5576;50.008;10.596;2022-10-16T08:45:25;2.33;;;1.80;;
11046;SDS011;5576;50.008;10.596;2022-10-16T08:50:36;3.60;;;2.78;;
11046;SDS011;5576;50.008;10.596;2022-10-16T08:53:04;1.98;;;1.80;;
11046;SDS011;5576;50.008;10.596;2022-10-16T08:55:34;5.97;;;1.80;;
11046;SDS011;5576;50.008;10.596;2022-10-16T08:58:10;3.00;;;1.70;;
11046;SDS011;5576;50.008;10.596;2022-10-16T09:00:38;2.22;;;1.50;;
11046;SDS011;5576;50.008;10.596;2022-10-16T09:17:06;3.25;;;1.95;;
11046;SDS011;5576;50.008;10.596;2022-10-16T09:19:40;3.67;;;2.30;;
11046;SDS011;5576;50.008;10.596;2022-10-16T09:22:15;3.15;;;1.80;;
11046;SDS011;5576;50.008;10.596;2022-10-16T09:24:42;2.00;;;1.80;;
11046;SDS011;5576;50.008;10.596;2022-10-16T09:27:11;4.53;;;3.00;;
11046;SDS011;5576;50.008;10.596;2022-10-16T09:29:39;3.08;;;1.70;;
11046;SDS011;5576;50.008;10.596;2022-10-16T09:32:08;2.20;;;1.75;;
11046;SDS011;5576;50.008;10.596;2022-10-16T09:34:42;5.03;;;2.72;;
11046;SDS011;5576;50.008;10.596;2022-10-16T09:37:12;3.63;;;2.00;;
11046;SDS011;5576;50.008;10.596;2022-10-16T09:39:50;2.00;;;1.73;;
11046;SDS011;5576;50.008;10.596;2022-10-16T09:42:18;3.05;;;2.10;;
11046;SDS011;5576;50.008;10.596;2022-10-16T09:44:49;2.85;;;1.88;;
11046;SDS011;5576;50.008;10.596;2022-10-16T09:47:18;3.22;;;2.10;;
11046;SDS011;5576;50.008;10.596;2022-10-16T09:49:52;3.57;;;2.00;;
11046;SDS011;5576;50.008;10.596;2022-10-16T09:52:21;3.23;;;2.57;;
11046;SDS011;5576;50.008;10.596;2022-10-16T09:54:49;3.63;;;1.90;;
11046;SDS011;5576;50.008;10.596;2022-10-16T09:57:16;2.80;;;1.80;;
11046;SDS011;5576;50.008;10.596;2022-10-16T09:59:46;2.13;;;1.40;;
11046;SDS011;5576;50.008;10.596;2022-10-16T10:02:17;2.05;;;1.77;;
11046;SDS011;5576;50.008;10.596;2022-10-16T10:04:48;3.67;;;2.80;;
11046;SDS011;5576;50.008;10.596;2022-10-16T10:07:18;2.33;;;2.03;;
11046;SDS011;5576;50.008;10.596;2022-10-16T10:09:48;2.65;;;1.75;;
11046;SDS011;5576;50.008;10.596;2022-10-16T10:12:21;2.37;;;1.90;;
11046;SDS011;5576;50.008;10.596;2022-10-16T10:14:53;2.30;;;2.10;;
11046;SDS011;5576;50.008;10.596;2022-10-16T10:17:23;3.65;;;2.20;;
11046;SDS011;5576;50.008;10.596;2022-10-16T10:19:52;3.50;;;2.60;;
11046;SDS011;5576;50.008;10.596;2022-10-16T10:54:53;1.70;;;1.40;;
11046;SDS011;5576;50.008;10.596;2022-10-16T11:05:31;3.90;;;2.58;;
11046;SDS011;5576;50.008;10.596;2022-10-16T11:08:12;3.53;;;2.45;;
11046;SDS011;5576;50.008;10.596;2022-10-16T11:10:45;3.40;;;2.10;;
11046;SDS011;5576;50.008;10.596;2022-10-16T11:13:33;2.95;;;2.22;;
11046;SDS011;5576;50.008;10.596;2022-10-16T11:16:12;5.07;;;3.22;;
11046;SDS011;5576;50.008;10.596;2022-10-16T11:18:47;4.47;;;3.00;;
11046;SDS011;5576;50.008;10.596;2022-10-16T11:21:19;7.00;;;3.28;;
11046;SDS011;5576;50.008;10.596;2022-10-16T11:26:19;2.67;;;2.47;;
11046;SDS011;5576;50.008;10.596;2022-10-16T11:28:49;2.42;;;1.92;;
11046;SDS011;5576;50.008;10.596;2022-10-16T11:31:36;3.10;;;2.50;;
11046;SDS011;5576;50.008;10.596;2022-10-16T11:36:59;4.00;;;2.90;;
11046;SDS011;5576;50.008;10.596;2022-10-16T11:39:33;5.97;;;3.95;;
11046;SDS011;5576;50.008;10.596;2022-10-16T11:42:01;4.00;;;2.90;;
11046;SDS011;5576;50.008;10.596;2022-10-16T11:44:57;8.17;;;4.40;;
11046;SDS011;5576;50.008;10.596;2022-10-16T11:50:22;8.07;;;5.38;;
11046;SDS011;5576;50.008;10.596;2022-10-16T11:53:03;10.80;;;6.47;;
11046;SDS011;5576;50.008;10.596;2022-10-16T11:55:52;5.60;;;3.55;;
11046;SDS011;5576;50.008;10.596;2022-10-16T12:03:43;4.07;;;2.70;;
11046;SDS011;5576;50.008;10.596;2022-10-16T12:08:53;2.47;;;1.98;;
11046;SDS011;5576;50.008;10.596;2022-10-16T12:11:24;2.60;;;1.70;;
11046;SDS011;5576;50.008;10.596;2022-10-16T12:16:57;3.50;;;2.10;;
11046;SDS011;5576;50.008;10.596;2022-10-16T12:19:27;3.10;;;2.40;;
11046;SDS011;5576;50.008;10.596;2022-10-16T12:21:55;7.40;;;3.70;;
11046;SDS011;5576;50.008;10.596;2022-10-16T12:24:39;5.05;;;3.47;;
11046;SDS011;5576;50.008;10.596;2022-10-16T12:29:55;3.00;;;2.40;;
11046;SDS011;5576;50.008;10.596;2022-10-16T12:32:28;3.60;;;2.47;;
11046;SDS011;5576;50.008;10.596;2022-10-16T12:34:57;2.97;;;2.03;;
11046;SDS011;5576;50.008;10.596;2022-10-16T12:37:25;2.72;;;1.60;;
11046;SDS011;5576;50.008;10.596;2022-10-16T12:39:55;3.78;;;1.80;;
11046;SDS011;5576;50.008;10.596;2022-10-16T12:42:23;2.10;;;1.90;;
11046;SDS011;5576;50.008;10.596;2022-10-16T12:44:54;2.75;;;1.77;;
11046;SDS011;5576;50.008;10.596;2022-10-16T12:47:22;2.03;;;1.45;;
11046;SDS011;5576;50.008;10.596;2022-10-16T12:50:01;1.60;;;1.50;;
11046;SDS011;5576;50.008;10.596;2022-10-16T12:52:43;1.85;;;1.30;;
11046;SDS011;5576;50.008;10.596;2022-10-16T12:55:15;2.58;;;1.50;;
11046;SDS011;5576;50.008;10.596;2022-10-16T12:57:53;2.85;;;1.25;;
11046;SDS011;5576;50.008;10.596;2022-10-16T13:12:00;1.50;;;1.23;;
11046;SDS011;5576;50.008;10.596;2022-10-16T13:20:21;1.33;;;1.23;;
11046;SDS011;5576;50.008;10.596;2022-10-16T13:25:40;3.55;;;1.40;;
11046;SDS011;5576;50.008;10.596;2022-10-16T13:28:09;2.03;;;1.40;;
11046;SDS011;5576;50.008;10.596;2022-10-16T13:30:50;2.30;;;1.50;;
11046;SDS011;5576;50.008;10.596;2022-10-16T13:33:51;2.67;;;1.50;;
11046;SDS011;5576;50.008;10.596;2022-10-16T13:36:06;3.80;;;1.90;;
11046;SDS011;5576;50.008;10.596;2022-10-16T13:38:33;4.32;;;2.95;;
11046;SDS011;5576;50.008;10.596;2022-10-16T13:41:01;3.90;;;3.15;;
11046;SDS011;5576;50.008;10.596;2022-10-16T13:46:01;1.92;;;1.30;;
11046;SDS011;5576;50.008;10.596;2022-10-16T13:48:29;1.23;;;1.10;;
11046;SDS011;5576;50.008;10.596;2022-10-16T13:50:59;1.45;;;1.02;;
11046;SDS011;5576;50.008;10.596;2022-10-16T13:53:30;1.10;;;1.00;;
11046;SDS011;5576;50.008;10.596;2022-10-16T13:55:57;2.92;;;1.15;;
11046;SDS011;5576;50.008;10.596;2022-10-16T13:58:25;2.03;;;1.50;;
11046;SDS011;5576;50.008;10.596;2022-10-16T14:00:55;2.10;;;1.50;;
11046;SDS011;5576;50.008;10.596;2022-10-16T14:03:23;2.05;;;1.27;;
11046;SDS011;5576;50.008;10.596;2022-10-16T14:05:51;1.67;;;1.45;;
11046;SDS011;5576;50.008;10.596;2022-10-16T14:08:21;1.75;;;1.50;;
11046;SDS011;5576;50.008;10.596;2022-10-16T14:10:49;2.20;;;1.30;;
11046;SDS011;5576;50.008;10.596;2022-10-16T14:13:19;1.85;;;1.33;;
11046;SDS011;5576;50.008;10.596;2022-10-16T14:15:50;3.95;;;1.00;;
11046;SDS011;5576;50.008;10.596;2022-10-16T14:18:20;1.33;;;1.10;;
11046;SDS011;5576;50.008;10.596;2022-10-16T14:20:48;2.00;;;1.40;;
11046;SDS011;5576;50.008;10.596;2022-10-16T14:23:23;1.52;;;1.20;;
11046;SDS011;5576;50.008;10.596;2022-10-16T14:26:15;1.30;;;1.00;;
11046;SDS011;5576;50.008;10.596;2022-10-16T14:28:44;3.92;;;1.40;;
11046;SDS011;5576;50.008;10.596;2022-10-16T14:34:03;2.53;;;1.30;;
11046;SDS011;5576;50.008;10.596;2022-10-16T14:36:29;2.83;;;1.40;;
11046;SDS011;5576;50.008;10.596;2022-10-16T14:38:58;2.30;;;1.20;;
11046;SDS011;5576;50.008;10.596;2022-10-16T14:41:27;1.13;;;1.00;;
11046;SDS011;5576;50.008;10.596;2022-10-16T14:43:55;3.27;;;2.20;;
11046;SDS011;5576;50.008;10.596;2022-10-16T14:46:39;3.30;;;1.75;;
11046;SDS011;5576;50.008;10.596;2022-10-16T14:51:36;3.90;;;1.95;;
11046;SDS011;5576;50.008;10.596;2022-10-16T14:54:03;5.57;;;1.80;;
11046;SDS011;5576;50.008;10.596;2022-10-16T14:56:30;2.72;;;1.80;;
11046;SDS011;5576;50.008;10.596;2022-10-16T14:59:00;4.55;;;3.80;;
11046;SDS011;5576;50.008;10.596;2022-10-16T15:01:28;5.57;;;2.80;;
11046;SDS011;5576;50.008;10.596;2022-10-16T15:03:53;6.50;;;4.63;;
11046;SDS011;5576;50.008;10.596;2022-10-16T15:06:19;6.10;;;4.35;;
11046;SDS011;5576;50.008;10.596;2022-10-16T15:08:45;4.97;;;2.90;;
11046;SDS011;5576;50.008;10.596;2022-10-16T15:11:12;3.77;;;2.50;;
11046;SDS011;5576;50.008;10.596;2022-10-16T15:13:40;4.60;;;2.92;;
11046;SDS011;5576;50.008;10.596;2022-10-16T15:16:14;5.95;;;2.83;;
11046;SDS011;5576;50.008;10.596;2022-10-16T15:18:41;4.60;;;2.60;;
11046;SDS011;5576;50.008;10.596;2022-10-16T15:21:08;3.77;;;2.20;;
11046;SDS011;5576;50.008;10.596;2022-10-16T15:23:44;4.33;;;2.40;;
11046;SDS011;5576;50.008;10.596;2022-10-16T15:26:10;5.95;;;2.53;;
11046;SDS011;5576;50.008;10.596;2022-10-16T15:28:35;4.57;;;2.00;;
11046;SDS011;5576;50.008;10.596;2022-10-16T15:31:01;4.40;;;2.38;;
11046;SDS011;5576;50.008;10.596;2022-10-16T15:33:30;5.18;;;2.08;;
11046;SDS011;5576;50.008;10.596;2022-10-16T15:35:59;5.35;;;2.08;;
11046;SDS011;5576;50.008;10.596;2022-10-16T15:38:26;4.47;;;2.55;;
11046;SDS011;5576;50.008;10.596;2022-10-16T15:40:53;3.80;;;2.78;;
11046;SDS011;5576;50.008;10.596;2022-10-16T15:43:19;4.57;;;3.53;;
11046;SDS011;5576;50.008;10.596;2022-10-16T15:45:52;5.55;;;3.60;;
11046;SDS011;5576;50.008;10.596;2022-10-16T15:48:29;5.57;;;3.30;;
11046;SDS011;5576;50.008;10.596;2022-10-16T15:50:55;3.97;;;3.03;;
11046;SDS011;5576;50.008;10.596;2022-10-16T15:53:21;4.00;;;2.45;;
11046;SDS011;5576;50.008;10.596;2022-10-16T15:55:47;5.50;;;2.40;;
11046;SDS011;5576;50.008;10.596;2022-10-16T15:58:13;2.42;;;2.15;;
11046;SDS011;5576;50.008;10.596;2022-10-16T16:00:39;3.30;;;2.90;;
11046;SDS011;5576;50.008;10.596;2022-10-16T16:03:04;3.45;;;2.67;;
11046;SDS011;5576;50.008;10.596;2022-10-16T16:05:30;3.07;;;2.77;;
11046;SDS011;5576;50.008;10.596;2022-10-16T16:07:58;3.60;;;2.40;;
11046;SDS011;5576;50.008;10.596;2022-10-16T16:10:24;4.35;;;2.65;;
11046;SDS011;5576;50.008;10.596;2022-10-16T16:12:50;5.13;;;2.77;;
11046;SDS011;5576;50.008;10.596;2022-10-16T16:15:19;8.10;;;5.27;;
11046;SDS011;5576;50.008;10.596;2022-10-16T16:17:46;7.20;;;4.28;;
11046;SDS011;5576;50.008;10.596;2022-10-16T16:20:12;7.70;;;4.20;;
11046;SDS011;5576;50.008;10.596;2022-10-16T16:22:38;4.53;;;3.50;;
11046;SDS011;5576;50.008;10.596;2022-10-16T16:25:04;3.57;;;2.60;;
11046;SDS011;5576;50.008;10.596;2022-10-16T16:27:30;4.45;;;3.17;;
11046;SDS011;5576;50.008;10.596;2022-10-16T16:29:59;4.47;;;3.00;;
11046;SDS011;5576;50.008;10.596;2022-10-16T16:32:25;4.43;;;3.03;;
11046;SDS011;5576;50.008;10.596;2022-10-16T16:34:51;3.42;;;2.67;;
11046;SDS011;5576;50.008;10.596;2022-10-16T16:37:17;3.60;;;3.20;;
11046;SDS011;5576;50.008;10.596;2022-10-16T16:39:43;5.20;;;3.25;;
11046;SDS011;5576;50.008;10.596;2022-10-16T16:42:09;27.37;;;13.50;;
11046;SDS011;5576;50.008;10.596;2022-10-16T16:44:35;26.17;;;13.68;;
11046;SDS011;5576;50.008;10.596;2022-10-16T16:47:02;18.70;;;10.55;;
11046;SDS011;5576;50.008;10.596;2022-10-16T16:49:29;15.20;;;8.63;;
11046;SDS011;5576;50.008;10.596;2022-10-16T16:51:55;13.82;;;7.45;;
11046;SDS011;5576;50.008;10.596;2022-10-16T16:54:20;13.60;;;8.33;;
11046;SDS011;5576;50.008;10.596;2022-10-16T16:56:46;17.10;;;9.18;;
11046;SDS011;5576;50.008;10.596;2022-10-16T16:59:13;13.80;;;7.70;;
11046;SDS011;5576;50.008;10.596;2022-10-16T17:01:40;11.82;;;6.85;;
11046;SDS011;5576;50.008;10.596;2022-10-16T17:04:06;12.05;;;7.53;;